createdAt,value
2022-11-15T00:00:10.874Z,20.10
2022-11-15T00:03:16.500Z,20.10
2022-11-15T00:06:20.744Z,20.10
2022-11-15T00:09:25.027Z,20.09
2022-11-15T00:12:29.743Z,20.07
2022-11-15T00:15:36.369Z,20.08
2022-11-15T00:18:40.268Z,20.07
2022-11-15T00:21:44.607Z,20.07
2022-11-15T00:24:48.841Z,20.08
2022-11-15T00:27:57.071Z,20.07
2022-11-15T00:31:06.386Z,20.08
2022-11-15T00:34:11.509Z,20.07
2022-11-15T00:37:16.136Z,20.05
2022-11-15T00:40:20.426Z,20.04
2022-11-15T00:43:24.499Z,20.07
2022-11-15T00:46:28.862Z,20.07
2022-11-15T00:49:33.018Z,20.07
2022-11-15T00:52:37.267Z,20.05
2022-11-15T00:55:41.570Z,20.04
2022-11-15T00:58:45.542Z,20.03
2022-11-15T01:01:49.806Z,20.04
2022-11-15T01:04:53.977Z,20.02
2022-11-15T01:07:58.681Z,20.03
2022-11-15T01:11:08.901Z,20.03
2022-11-15T01:14:13.007Z,20.04
2022-11-15T01:17:17.193Z,20.04
2022-11-15T01:20:21.497Z,20.05
2022-11-15T01:23:25.570Z,20.04
2022-11-15T01:34:39.394Z,20.02
2022-11-15T01:37:43.636Z,20.02
2022-11-15T01:40:48.021Z,20.02
2022-11-15T01:43:57.814Z,20.01
2022-11-15T01:47:07.893Z,20.00
2022-11-15T01:50:16.946Z,20.01
2022-11-15T01:53:24.587Z,20.01
2022-11-15T01:56:32.467Z,20.01
2022-11-15T01:59:39.067Z,20.00
2022-11-15T02:02:43.884Z,20.01
2022-11-15T02:05:48.086Z,20.01
2022-11-15T02:08:52.912Z,20.00
2022-11-15T02:11:57.589Z,20.00
2022-11-15T02:15:02.877Z,19.99
2022-11-15T02:18:30.219Z,19.98
2022-11-15T02:21:40.034Z,20.00
2022-11-15T02:25:05.537Z,19.99
2022-11-15T02:28:34.108Z,19.99
2022-11-15T02:31:59.753Z,19.97
2022-11-15T02:35:09.790Z,19.98
2022-11-15T02:38:43.207Z,19.98
2022-11-15T02:42:04.583Z,19.98
2022-11-15T02:45:13.780Z,19.98
2022-11-15T02:48:19.710Z,19.98
2022-11-15T02:51:23.879Z,19.97
2022-11-15T02:54:32.398Z,19.97
2022-11-15T02:57:36.426Z,19.96
2022-11-15T03:00:55.822Z,19.97
2022-11-15T03:04:12.223Z,19.96
2022-11-15T03:07:30.244Z,19.96
2022-11-15T03:10:50.930Z,19.96
2022-11-15T03:13:59.923Z,19.95
2022-11-15T03:17:33.003Z,19.96
2022-11-15T03:20:37.818Z,19.95
2022-11-15T03:23:42.618Z,19.96
2022-11-15T03:26:49.063Z,19.94
2022-11-15T03:29:59.795Z,19.94
2022-11-15T03:33:05.700Z,19.93
2022-11-15T03:36:09.589Z,19.93
2022-11-15T03:39:20.252Z,19.94
2022-11-15T03:42:44.168Z,19.93
2022-11-15T03:45:55.530Z,19.95
2022-11-15T03:49:13.510Z,19.92
2022-11-15T03:52:22.972Z,19.91
2022-11-15T03:55:27.914Z,19.90
2022-11-15T03:58:32.195Z,19.92
2022-11-15T04:01:36.493Z,19.91
2022-11-15T04:04:41.054Z,19.90
2022-11-15T04:07:45.026Z,19.89
2022-11-15T04:10:53.410Z,19.88
2022-11-15T04:13:57.247Z,19.90
2022-11-15T04:17:01.528Z,19.91
2022-11-15T04:20:26.775Z,19.90
2022-11-15T04:23:49.501Z,19.89
2022-11-15T04:26:53.824Z,19.90
2022-11-15T04:29:58.390Z,19.88
2022-11-15T04:33:02.171Z,19.88
2022-11-15T04:36:24.887Z,19.89
2022-11-15T04:39:29.126Z,19.90
2022-11-15T04:42:33.340Z,19.90
2022-11-15T04:45:37.623Z,19.89
2022-11-15T04:48:41.826Z,19.89
2022-11-15T04:51:45.845Z,19.87
2022-11-15T04:54:50.087Z,19.89
2022-11-15T04:58:02.401Z,19.87
2022-11-15T05:01:10.690Z,19.87
2022-11-15T05:04:21.068Z,19.86
2022-11-15T05:07:25.023Z,19.88
2022-11-15T05:10:29.280Z,19.89
2022-11-15T05:13:33.884Z,19.93
2022-11-15T05:16:38.357Z,19.96
2022-11-15T05:19:42.539Z,20.00
2022-11-15T05:22:48.152Z,20.02
2022-11-15T05:25:52.576Z,20.03
2022-11-15T05:28:58.903Z,20.03
2022-11-15T05:32:06.933Z,20.04
2022-11-15T05:35:30.781Z,20.07
2022-11-15T05:38:35.079Z,20.10
2022-11-15T05:41:46.202Z,20.12
2022-11-15T05:44:50.924Z,20.13
2022-11-15T05:47:58.575Z,20.15
2022-11-15T05:51:05.761Z,20.16
2022-11-15T05:54:11.465Z,20.22
2022-11-15T05:57:15.664Z,20.26
2022-11-15T06:00:19.958Z,20.31
2022-11-15T06:03:23.674Z,20.35
2022-11-15T06:06:29.375Z,20.40
2022-11-15T06:09:34.117Z,20.39
2022-11-15T06:12:38.672Z,20.41
2022-11-15T06:15:42.989Z,20.41
2022-11-15T06:18:47.274Z,20.40
2022-11-15T06:21:51.418Z,20.38
2022-11-15T06:24:55.702Z,20.37
2022-11-15T06:28:00.291Z,20.35
2022-11-15T06:31:06.143Z,20.32
2022-11-15T06:34:10.515Z,20.31
2022-11-15T06:37:14.694Z,20.29
2022-11-15T06:40:18.944Z,20.28
2022-11-15T06:43:23.338Z,20.26
2022-11-15T06:46:27.743Z,20.26
2022-11-15T06:49:32.260Z,20.23
2022-11-15T06:52:36.333Z,20.22
2022-11-15T06:55:40.531Z,20.20
2022-11-15T06:58:44.854Z,20.17
2022-11-15T07:01:50.601Z,20.12
2022-11-15T07:04:55.027Z,20.11
2022-11-15T07:07:59.710Z,20.09
2022-11-15T07:11:06.507Z,20.08
2022-11-15T07:14:10.382Z,20.07
2022-11-15T07:17:14.457Z,20.09
2022-11-15T07:20:19.731Z,20.07
2022-11-15T07:23:24.081Z,20.04
2022-11-15T07:26:28.113Z,20.04
2022-11-15T07:29:32.793Z,20.04
2022-11-15T07:32:37.156Z,20.07
2022-11-15T07:35:41.451Z,20.04
2022-11-15T07:38:45.657Z,20.02
2022-11-15T07:41:50.548Z,19.99
2022-11-15T07:44:54.464Z,19.96
2022-11-15T07:47:58.659Z,19.95
2022-11-15T07:51:03.815Z,19.92
2022-11-15T07:54:07.927Z,19.96
2022-11-15T07:57:12.062Z,19.98
2022-11-15T08:00:17.092Z,20.00
2022-11-15T08:03:21.493Z,20.03
2022-11-15T08:06:26.003Z,20.04
2022-11-15T08:09:30.389Z,20.03
2022-11-15T08:12:35.261Z,20.06
2022-11-15T08:15:39.366Z,20.07
2022-11-15T08:18:43.586Z,20.09
2022-11-15T08:21:48.010Z,20.09
2022-11-15T08:24:52.108Z,20.08
2022-11-15T08:28:02.517Z,20.09
2022-11-15T08:31:07.122Z,20.10
2022-11-15T08:34:10.975Z,20.14
2022-11-15T08:37:15.097Z,20.17
2022-11-15T08:40:19.737Z,20.19
2022-11-15T08:43:23.722Z,20.21
2022-11-15T08:46:28.138Z,20.22
2022-11-15T08:49:32.368Z,20.25
2022-11-15T08:52:36.838Z,20.27
2022-11-15T08:55:42.058Z,20.29
2022-11-15T08:58:46.339Z,20.30
2022-11-15T09:01:50.805Z,20.30
2022-11-15T09:04:54.604Z,20.32
2022-11-15T09:07:58.694Z,20.34
2022-11-15T09:11:07.937Z,20.34
2022-11-15T09:14:15.617Z,20.33
2022-11-15T09:17:24.448Z,20.34
2022-11-15T09:20:29.200Z,20.35
2022-11-15T09:23:33.566Z,20.35
2022-11-15T09:26:38.154Z,20.35
2022-11-15T09:29:42.551Z,20.35
2022-11-15T09:32:46.591Z,20.35
2022-11-15T09:35:50.875Z,20.35
2022-11-15T09:38:55.737Z,20.35
2022-11-15T09:42:09.950Z,20.33
2022-11-15T09:45:38.273Z,20.31
2022-11-15T09:48:55.283Z,20.30
2022-11-15T09:52:01.238Z,20.30
2022-11-15T09:54:55.230Z,20.28
2022-11-15T09:58:08.550Z,20.27
2022-11-15T10:00:54.613Z,20.27
2022-11-15T10:03:43.022Z,20.26
2022-11-15T10:06:28.366Z,20.24
2022-11-15T10:09:19.977Z,20.24
2022-11-15T10:12:10.182Z,20.24
2022-11-15T10:15:05.287Z,20.23
2022-11-15T10:18:07.360Z,20.22
2022-11-15T10:21:03.703Z,20.23
2022-11-15T10:23:49.730Z,20.23
2022-11-15T10:26:34.928Z,20.22
2022-11-15T10:29:27.063Z,20.24
2022-11-15T10:32:14.615Z,20.24
2022-11-15T10:35:00.194Z,20.26
2022-11-15T10:37:45.419Z,20.25
2022-11-15T10:40:30.741Z,20.23
2022-11-15T10:43:19.799Z,20.23
2022-11-15T10:46:45.149Z,20.22
2022-11-15T10:49:32.587Z,20.23
2022-11-15T10:52:21.066Z,20.22
2022-11-15T10:55:25.129Z,20.22
2022-11-15T10:58:31.510Z,20.22
2022-11-15T11:01:26.333Z,20.21
2022-11-15T11:04:11.706Z,20.22
2022-11-15T11:06:59.870Z,20.23
2022-11-15T11:09:45.374Z,20.22
2022-11-15T11:12:33.439Z,20.24
2022-11-15T11:15:19.546Z,20.28
2022-11-15T11:18:16.448Z,20.27
2022-11-15T11:21:10.906Z,20.27
2022-11-15T11:24:08.393Z,20.28
2022-11-15T11:27:09.378Z,20.27
2022-11-15T11:30:08.450Z,20.26
2022-11-15T11:33:02.916Z,20.26
2022-11-15T11:35:57.742Z,20.27
2022-11-15T11:38:56.201Z,20.26
2022-11-15T11:41:53.639Z,20.26
2022-11-15T11:44:54.058Z,20.26
2022-11-15T11:47:45.300Z,20.27
2022-11-15T11:50:30.515Z,20.26
2022-11-15T11:53:25.229Z,20.26
2022-11-15T11:56:29.443Z,20.26
2022-11-15T12:02:21.500Z,20.27
2022-11-15T12:05:32.648Z,20.27
2022-11-15T12:08:34.445Z,20.27
2022-11-15T12:11:27.263Z,20.27
2022-11-15T12:14:26.086Z,20.24
2022-11-15T12:17:12.896Z,20.27
2022-11-15T12:19:59.987Z,20.28
2022-11-15T12:22:53.625Z,20.33
2022-11-15T12:26:23.339Z,20.42
2022-11-15T12:29:42.748Z,20.44
2022-11-15T12:32:38.604Z,20.46
2022-11-15T12:35:41.510Z,20.51
2022-11-15T12:38:59.182Z,20.54
2022-11-15T12:41:57.050Z,20.55
2022-11-15T12:44:42.191Z,20.59
2022-11-15T12:47:27.931Z,20.60
2022-11-15T12:50:14.880Z,20.60
2022-11-15T12:53:26.439Z,20.60
2022-11-15T12:56:17.686Z,20.61
2022-11-15T12:59:03.456Z,20.60
2022-11-15T13:01:48.861Z,20.61
2022-11-15T13:04:34.458Z,20.62
2022-11-15T13:07:41.475Z,20.60
2022-11-15T13:10:28.141Z,20.61
2022-11-15T13:13:44.281Z,20.62
2022-11-15T13:16:30.024Z,20.62
2022-11-15T13:19:16.075Z,20.65
2022-11-15T13:22:24.568Z,20.65
2022-11-15T13:25:46.305Z,20.66
2022-11-15T13:28:44.840Z,20.68
2022-11-15T13:31:44.502Z,20.69
2022-11-15T13:34:53.124Z,20.71
2022-11-15T13:37:40.916Z,20.71
2022-11-15T13:40:35.506Z,20.71
2022-11-15T13:43:29.277Z,20.73
2022-11-15T13:49:08.906Z,20.73
2022-11-15T13:51:55.940Z,20.69
2022-11-15T13:54:57.874Z,20.72
2022-11-15T13:57:45.496Z,20.74
2022-11-15T14:03:29.733Z,20.74
2022-11-15T14:06:18.326Z,20.73
2022-11-15T14:09:10.187Z,20.73
2022-11-15T14:11:57.204Z,20.73
2022-11-15T14:14:47.474Z,20.74
2022-11-15T14:17:32.749Z,20.79
2022-11-15T14:20:37.275Z,20.79
2022-11-15T14:23:28.197Z,20.78
2022-11-15T14:26:33.466Z,20.80
2022-11-15T14:29:27.163Z,20.86
2022-11-15T14:32:22.686Z,20.89
2022-11-15T14:35:16.120Z,20.90
2022-11-15T14:38:01.573Z,20.94
2022-11-15T14:40:47.427Z,20.96
2022-11-15T14:43:33.009Z,20.99
2022-11-15T14:46:19.222Z,21.01
2022-11-15T14:49:04.511Z,21.04
2022-11-15T14:51:49.907Z,21.04
2022-11-15T14:54:35.177Z,21.04
2022-11-15T14:57:20.686Z,21.06
2022-11-15T15:00:06.713Z,21.09
2022-11-15T15:02:58.964Z,21.08
2022-11-15T15:05:45.107Z,21.10
2022-11-15T15:08:30.734Z,21.11
2022-11-15T15:11:28.494Z,21.15
2022-11-15T15:14:15.193Z,21.18
2022-11-15T15:17:00.709Z,21.19
2022-11-15T15:19:46.138Z,21.22
2022-11-15T15:22:31.715Z,21.24
2022-11-15T15:25:36.009Z,21.30
2022-11-15T15:28:21.464Z,21.30
2022-11-15T15:31:06.892Z,21.30
2022-11-15T15:33:52.231Z,21.35
2022-11-15T15:36:37.804Z,21.40
2022-11-15T15:39:22.974Z,21.42
2022-11-15T15:42:08.409Z,21.42
2022-11-15T15:44:53.744Z,21.46
2022-11-15T15:47:39.733Z,21.44
2022-11-15T15:50:31.091Z,21.47
2022-11-15T15:53:17.008Z,21.50
2022-11-15T15:56:02.977Z,21.53
2022-11-15T15:58:48.605Z,21.55
2022-11-15T16:01:33.903Z,21.55
2022-11-15T16:04:19.860Z,21.56
2022-11-15T16:07:05.477Z,21.56
2022-11-15T16:10:01.154Z,21.55
2022-11-15T16:12:46.879Z,21.54
2022-11-15T16:15:33.151Z,21.53
2022-11-15T16:18:19.060Z,21.51
2022-11-15T16:21:04.627Z,21.50
2022-11-15T16:23:49.866Z,21.50
2022-11-15T16:26:37.670Z,21.51
2022-11-15T16:29:24.031Z,21.51
2022-11-15T16:32:09.733Z,21.49
2022-11-15T16:34:57.073Z,21.42
2022-11-15T16:37:44.986Z,21.41
2022-11-15T16:40:33.854Z,21.40
2022-11-15T16:43:19.822Z,21.39
2022-11-15T16:46:13.961Z,21.35
2022-11-15T16:48:59.537Z,21.36
2022-11-15T16:51:49.746Z,21.38
2022-11-15T16:54:35.047Z,21.43
2022-11-15T16:57:20.601Z,21.36
2022-11-15T17:00:06.439Z,21.35
2022-11-15T17:02:53.032Z,21.35
2022-11-15T17:05:38.310Z,21.33
2022-11-15T17:08:24.288Z,21.30
2022-11-15T17:11:09.952Z,21.29
2022-11-15T17:13:59.725Z,21.30
2022-11-15T17:16:45.796Z,21.27
2022-11-15T17:19:31.585Z,21.25
2022-11-15T17:22:16.974Z,21.30
2022-11-15T17:25:03.182Z,21.28
2022-11-15T17:27:49.041Z,21.27
2022-11-15T17:30:35.816Z,21.21
2022-11-15T17:33:21.705Z,21.17
2022-11-15T17:36:11.005Z,21.22
2022-11-15T17:38:59.469Z,21.16
2022-11-15T17:41:45.550Z,21.16
2022-11-15T17:44:32.696Z,21.17
2022-11-15T17:47:18.198Z,21.15
2022-11-15T17:50:03.873Z,21.15
2022-11-15T17:52:49.581Z,21.16
2022-11-15T17:55:34.879Z,21.12
2022-11-15T17:58:20.307Z,21.13
2022-11-15T18:01:12.488Z,21.11
2022-11-15T18:04:00.802Z,21.12
2022-11-15T18:06:46.994Z,21.06
2022-11-15T18:09:32.526Z,21.00
2022-11-15T18:12:18.034Z,21.02
2022-11-15T18:15:04.016Z,20.99
2022-11-15T18:17:49.873Z,21.00
2022-11-15T18:20:35.701Z,21.03
2022-11-15T18:23:21.095Z,21.04
2022-11-15T18:26:07.904Z,21.05
2022-11-15T18:29:02.056Z,20.96
2022-11-15T18:40:11.028Z,21.07
2022-11-15T18:42:57.431Z,21.09
2022-11-15T18:45:42.910Z,21.07
2022-11-15T18:48:31.541Z,21.02
2022-11-15T18:51:23.023Z,21.04
2022-11-15T18:54:14.741Z,21.03
2022-11-15T18:57:00.229Z,21.04
2022-11-15T18:59:45.457Z,21.06
2022-11-15T19:02:31.342Z,21.06
2022-11-15T19:05:21.697Z,21.03
2022-11-15T19:08:07.556Z,21.04
2022-11-15T19:10:53.304Z,21.07
2022-11-15T19:13:39.642Z,21.04
2022-11-15T19:16:26.592Z,21.06
2022-11-15T19:19:14.858Z,21.06
2022-11-15T19:22:00.976Z,21.00
2022-11-15T19:24:46.253Z,21.01
2022-11-15T19:27:36.917Z,21.03
2022-11-15T19:30:23.444Z,21.03
2022-11-15T19:33:09.112Z,21.03
2022-11-15T19:36:00.661Z,21.04
2022-11-15T19:38:46.215Z,20.97
2022-11-15T19:41:32.299Z,21.03
2022-11-15T19:44:18.944Z,21.00
2022-11-15T19:47:04.470Z,21.00
2022-11-15T19:49:49.866Z,21.02
2022-11-15T19:52:35.168Z,21.02
2022-11-15T19:55:20.498Z,21.10
2022-11-15T19:58:05.641Z,21.12
2022-11-15T20:00:51.176Z,21.13
2022-11-15T20:03:39.176Z,21.13
2022-11-15T20:06:30.982Z,21.08
2022-11-15T20:09:16.893Z,21.04
2022-11-15T20:12:02.318Z,21.00
2022-11-15T20:14:47.806Z,20.95
2022-11-15T20:17:33.281Z,20.91
2022-11-15T20:20:18.798Z,20.87
2022-11-15T20:23:04.122Z,20.84
2022-11-15T20:25:49.782Z,20.80
2022-11-15T20:28:37.514Z,20.77
2022-11-15T20:31:23.198Z,20.72
2022-11-15T20:34:08.501Z,20.70
2022-11-15T20:36:53.594Z,20.67
2022-11-15T20:39:39.491Z,20.63
2022-11-15T20:42:24.815Z,20.60
2022-11-15T20:45:10.587Z,20.56
2022-11-15T20:47:59.555Z,20.56
2022-11-15T20:50:47.216Z,20.60
2022-11-15T20:53:33.680Z,20.65
2022-11-15T20:56:21.323Z,20.66
2022-11-15T20:59:07.086Z,20.68
2022-11-15T21:01:52.582Z,20.70
2022-11-15T21:07:23.814Z,20.75
2022-11-15T21:10:28.798Z,20.75
2022-11-15T21:13:14.342Z,20.76
2022-11-15T21:16:00.642Z,20.75
2022-11-15T21:18:46.057Z,20.75
2022-11-15T21:21:31.395Z,20.75
2022-11-15T21:24:16.873Z,20.79
2022-11-15T21:27:02.293Z,20.79
2022-11-15T21:29:50.342Z,20.81
2022-11-15T21:32:35.973Z,20.81
2022-11-15T21:35:21.424Z,20.84
2022-11-15T21:38:06.772Z,20.85
2022-11-15T21:40:53.293Z,20.85
2022-11-15T21:43:38.954Z,20.86
2022-11-15T21:46:24.016Z,20.86
2022-11-15T21:49:09.612Z,20.84
2022-11-15T21:51:55.411Z,20.86
2022-11-15T21:54:41.744Z,20.87
2022-11-15T21:57:30.164Z,20.88
2022-11-15T22:00:35.397Z,20.89
2022-11-15T22:05:53.737Z,20.89
2022-11-15T22:08:39.013Z,20.90
2022-11-15T22:11:24.414Z,20.91
2022-11-15T22:14:09.672Z,20.85
2022-11-15T22:16:54.882Z,20.86
2022-11-15T22:19:51.761Z,20.90
2022-11-15T22:22:37.747Z,20.92
2022-11-15T22:25:23.418Z,20.92
2022-11-15T22:28:08.971Z,20.91
2022-11-15T22:30:55.279Z,20.91
2022-11-15T22:33:40.959Z,20.91
2022-11-15T22:36:34.916Z,20.92
2022-11-15T22:39:28.113Z,20.92
2022-11-15T22:42:13.435Z,20.91
2022-11-15T22:44:59.105Z,20.94
2022-11-15T22:47:44.511Z,20.90
2022-11-15T22:50:29.846Z,20.88
2022-11-15T22:53:15.101Z,20.86
2022-11-15T22:56:02.949Z,20.85
2022-11-15T22:58:48.661Z,20.82
2022-11-15T23:01:34.044Z,20.81
2022-11-15T23:04:19.142Z,20.77
2022-11-15T23:07:04.650Z,20.73
2022-11-15T23:09:52.223Z,20.70
2022-11-15T23:12:56.448Z,20.68
2022-11-15T23:16:01.362Z,20.65
2022-11-15T23:18:46.924Z,20.62
2022-11-15T23:21:55.116Z,20.57
2022-11-15T23:24:40.523Z,20.55
2022-11-15T23:27:25.894Z,20.52
2022-11-15T23:30:30.465Z,20.49
2022-11-15T23:33:34.254Z,20.47
2022-11-15T23:36:19.413Z,20.45
2022-11-15T23:39:05.030Z,20.43
2022-11-15T23:41:50.364Z,20.40
2022-11-15T23:44:35.741Z,20.38
2022-11-15T23:47:20.958Z,20.35
2022-11-15T23:50:06.894Z,20.33
2022-11-15T23:52:52.166Z,20.32
2022-11-15T23:55:37.430Z,20.30
2022-11-15T23:58:22.898Z,20.29
